createdAt,value
2019-02-27T00:00:09.149Z,38.90
2019-02-27T00:02:38.192Z,39.73
2019-02-27T00:05:08.413Z,40.57
2019-02-27T00:07:37.470Z,37.77
2019-02-27T00:10:07.282Z,38.30
2019-02-27T00:12:35.795Z,38.90
2019-02-27T00:15:05.963Z,38.77
2019-02-27T00:17:34.453Z,39.17
2019-02-27T00:20:05.074Z,40.93
2019-02-27T00:22:33.254Z,39.93
2019-02-27T00:25:03.429Z,39.43
2019-02-27T00:27:31.993Z,38.03
2019-02-27T00:30:04.594Z,39.90
2019-02-27T00:32:30.577Z,39.63
2019-02-27T00:34:58.996Z,39.43
2019-02-27T00:37:27.440Z,39.13
2019-02-27T00:39:55.927Z,39.87
2019-02-27T00:42:33.079Z,38.50
2019-02-27T00:44:54.468Z,38.77
2019-02-27T00:47:22.880Z,41.33
2019-02-27T00:49:51.316Z,40.53
2019-02-27T00:52:19.759Z,40.20
2019-02-27T00:54:48.179Z,40.00
2019-02-27T00:57:20.600Z,39.30
2019-02-27T00:59:46.837Z,40.00
2019-02-27T01:02:15.274Z,39.13
2019-02-27T01:04:43.747Z,39.00
2019-02-27T01:07:12.600Z,39.90
2019-02-27T01:09:41.398Z,40.13
2019-02-27T01:12:09.819Z,41.47
2019-02-27T01:14:38.254Z,40.60
2019-02-27T01:17:06.698Z,39.90
2019-02-27T01:19:38.461Z,40.90
2019-02-27T01:22:05.277Z,40.83
2019-02-27T01:24:33.744Z,39.50
2019-02-27T01:27:04.675Z,40.47
2019-02-27T01:29:32.449Z,39.73
2019-02-27T01:32:00.879Z,40.03
2019-02-27T01:34:29.289Z,40.77
2019-02-27T01:36:58.028Z,40.53
2019-02-27T01:39:27.041Z,38.00
2019-02-27T01:41:57.915Z,40.60
2019-02-27T01:44:25.654Z,39.10
2019-02-27T01:46:54.763Z,37.77
2019-02-27T01:49:23.333Z,36.73
2019-02-27T01:51:51.800Z,37.83
2019-02-27T01:54:20.220Z,37.57
2019-02-27T01:56:48.660Z,38.47
2019-02-27T01:59:17.825Z,37.67
2019-02-27T02:01:46.479Z,39.47
2019-02-27T02:04:14.977Z,39.93
2019-02-27T02:06:43.453Z,40.77
2019-02-27T02:09:31.800Z,38.27
2019-02-27T02:12:15.389Z,39.30
2019-02-27T02:14:55.857Z,40.33
2019-02-27T02:17:43.447Z,38.83
2019-02-27T02:20:32.862Z,38.53
2019-02-27T02:23:14.169Z,37.33
2019-02-27T02:26:01.260Z,37.47
2019-02-27T02:28:33.342Z,38.13
2019-02-27T02:31:07.594Z,37.90
2019-02-27T02:34:06.377Z,39.47
2019-02-27T02:36:46.691Z,38.03
2019-02-27T02:39:27.216Z,38.13
2019-02-27T02:42:01.601Z,38.70
2019-02-27T02:44:39.069Z,37.97
2019-02-27T02:47:31.621Z,38.37
2019-02-27T02:50:18.486Z,38.03
2019-02-27T02:52:52.996Z,40.13
2019-02-27T02:55:39.192Z,39.60
2019-02-27T02:58:11.276Z,38.97
2019-02-27T03:00:49.024Z,40.80
2019-02-27T03:03:25.962Z,38.63
2019-02-27T03:06:18.222Z,40.20
2019-02-27T03:09:07.558Z,39.77
2019-02-27T03:11:54.089Z,39.30
2019-02-27T03:14:21.302Z,39.43
2019-02-27T03:17:09.082Z,38.67
2019-02-27T03:20:01.542Z,39.07
2019-02-27T03:22:40.473Z,38.13
2019-02-27T03:25:25.411Z,38.47
2019-02-27T03:27:56.895Z,39.23
2019-02-27T03:30:46.149Z,37.83
2019-02-27T03:33:26.709Z,36.97
2019-02-27T03:35:59.912Z,37.73
2019-02-27T03:39:00.038Z,37.80
2019-02-27T03:42:00.325Z,37.00
2019-02-27T03:44:40.480Z,36.90
2019-02-27T03:47:20.941Z,38.63
2019-02-27T03:50:14.691Z,38.33
2019-02-27T03:52:47.829Z,39.13
2019-02-27T03:55:52.451Z,37.17
2019-02-27T03:58:30.658Z,37.23
2019-02-27T04:01:19.186Z,36.63
2019-02-27T04:04:07.012Z,39.20
2019-02-27T04:06:59.297Z,37.27
2019-02-27T04:09:27.825Z,38.00
2019-02-27T04:11:56.284Z,37.77
2019-02-27T04:14:29.955Z,38.70
2019-02-27T04:17:05.467Z,38.00
2019-02-27T04:19:28.881Z,39.47
2019-02-27T04:22:00.509Z,37.80
2019-02-27T04:24:27.669Z,39.50
2019-02-27T04:26:56.139Z,38.50
2019-02-27T04:29:24.565Z,36.93
2019-02-27T04:31:53.000Z,36.93
2019-02-27T04:34:21.457Z,38.27
2019-02-27T04:36:49.927Z,37.57
2019-02-27T04:39:18.381Z,39.65
2019-02-27T04:41:46.834Z,35.43
2019-02-27T04:44:15.280Z,37.17
2019-02-27T04:46:43.720Z,38.27
2019-02-27T04:49:12.177Z,35.97
2019-02-27T04:51:40.684Z,35.65
2019-02-27T04:54:09.125Z,37.80
2019-02-27T04:56:37.539Z,39.47
2019-02-27T04:59:06.004Z,37.33
2019-02-27T05:01:36.636Z,38.33
2019-02-27T05:04:04.640Z,36.97
2019-02-27T05:06:33.081Z,38.73
2019-02-27T05:09:01.532Z,37.83
2019-02-27T05:11:30.237Z,39.73
2019-02-27T05:13:58.690Z,39.80
2019-02-27T05:16:27.168Z,37.60
2019-02-27T05:18:55.619Z,38.97
2019-02-27T05:21:24.060Z,38.37
2019-02-27T05:23:52.526Z,38.43
2019-02-27T05:26:21.076Z,37.47
2019-02-27T05:28:49.521Z,38.53
2019-02-27T05:31:19.026Z,35.87
2019-02-27T05:33:47.711Z,36.63
2019-02-27T05:36:16.139Z,38.37
2019-02-27T05:38:44.636Z,37.43
2019-02-27T05:41:13.092Z,36.87
2019-02-27T05:43:41.544Z,38.53
2019-02-27T05:46:09.978Z,36.30
2019-02-27T05:48:38.424Z,37.87
2019-02-27T05:51:07.542Z,37.00
2019-02-27T05:53:36.804Z,36.97
2019-02-27T05:56:05.542Z,36.03
2019-02-27T05:58:33.996Z,36.93
2019-02-27T06:01:05.043Z,35.50
2019-02-27T06:03:32.592Z,36.47
2019-02-27T06:06:01.045Z,37.67
2019-02-27T06:08:29.784Z,35.37
2019-02-27T06:10:58.266Z,39.30
2019-02-27T06:13:26.783Z,36.93
2019-02-27T06:15:55.235Z,37.97
2019-02-27T06:18:23.821Z,39.37
2019-02-27T06:20:52.300Z,37.93
2019-02-27T06:23:20.744Z,38.50
2019-02-27T06:25:49.213Z,38.67
2019-02-27T06:28:18.749Z,37.13
2019-02-27T06:30:47.787Z,37.10
2019-02-27T06:33:16.258Z,38.60
2019-02-27T06:35:44.676Z,36.80
2019-02-27T06:38:13.152Z,36.67
2019-02-27T06:40:42.867Z,37.43
2019-02-27T06:43:11.400Z,36.60
2019-02-27T06:45:39.814Z,37.83
2019-02-27T06:48:10.225Z,39.13
2019-02-27T06:50:38.450Z,37.60
2019-02-27T06:53:06.879Z,38.53
2019-02-27T06:55:35.341Z,39.00
2019-02-27T06:58:03.775Z,36.87
2019-02-27T07:00:35.768Z,37.50
2019-02-27T07:03:02.480Z,38.53
2019-02-27T07:05:30.943Z,38.30
2019-02-27T07:07:59.385Z,39.97
2019-02-27T07:10:27.860Z,39.37
2019-02-27T07:12:56.292Z,41.57
2019-02-27T07:15:24.752Z,40.03
2019-02-27T07:17:53.556Z,38.60
2019-02-27T07:20:24.387Z,38.90
2019-02-27T07:22:52.192Z,37.60
2019-02-27T07:25:20.752Z,40.30
2019-02-27T07:27:49.293Z,37.83
2019-02-27T07:30:21.126Z,38.33
2019-02-27T07:32:49.668Z,39.67
2019-02-27T07:35:18.212Z,38.43
2019-02-27T07:37:48.014Z,39.40
2019-02-27T07:40:21.064Z,39.87
2019-02-27T07:42:49.492Z,39.10
2019-02-27T07:45:22.625Z,43.27
2019-02-27T07:47:51.453Z,41.07
2019-02-27T07:50:20.721Z,41.37
2019-02-27T07:52:49.283Z,40.53
2019-02-27T07:55:22.710Z,42.23
2019-02-27T07:57:48.617Z,42.50
2019-02-27T08:00:22.217Z,41.70
2019-02-27T08:02:50.669Z,43.63
2019-02-27T08:05:19.237Z,44.00
2019-02-27T08:07:49.057Z,45.23
2019-02-27T08:10:25.498Z,47.60
2019-02-27T08:12:56.502Z,46.90
2019-02-27T08:15:25.210Z,46.23
2019-02-27T08:17:57.431Z,47.20
2019-02-27T08:20:24.073Z,46.80
2019-02-27T08:22:52.552Z,44.00
2019-02-27T08:25:21.104Z,43.60
2019-02-27T08:27:49.597Z,40.93
2019-02-27T08:30:25.613Z,40.83
2019-02-27T08:32:54.112Z,40.63
2019-02-27T08:35:22.729Z,40.23
2019-02-27T08:37:51.343Z,37.77
2019-02-27T08:40:24.060Z,38.83
2019-02-27T08:42:50.096Z,37.77
2019-02-27T08:45:20.590Z,33.23
2019-02-27T08:47:49.381Z,35.00
2019-02-27T08:50:21.881Z,33.63
2019-02-27T08:52:51.718Z,31.73
2019-02-27T08:55:22.620Z,33.80
2019-02-27T08:57:55.796Z,33.03
2019-02-27T09:00:26.845Z,30.87
2019-02-27T09:02:55.888Z,31.70
2019-02-27T09:05:24.493Z,32.10
2019-02-27T09:07:53.083Z,30.80
2019-02-27T09:10:23.339Z,32.70
2019-02-27T09:12:53.374Z,31.60
2019-02-27T09:15:21.952Z,30.80
2019-02-27T09:17:50.451Z,30.53
2019-02-27T09:20:21.146Z,29.83
2019-02-27T09:22:49.799Z,30.67
2019-02-27T09:25:23.376Z,30.50
2019-02-27T09:27:48.660Z,29.10
2019-02-27T09:30:28.747Z,29.73
2019-02-27T09:32:54.382Z,29.43
2019-02-27T09:35:22.916Z,29.55
2019-02-27T09:37:52.065Z,29.57
2019-02-27T09:40:25.594Z,29.00
2019-02-27T09:42:54.142Z,29.10
2019-02-27T09:45:35.662Z,27.17
2019-02-27T09:48:04.490Z,28.33
2019-02-27T09:50:37.613Z,26.57
2019-02-27T09:53:06.184Z,24.77
2019-02-27T09:55:34.754Z,25.07
2019-02-27T09:58:03.296Z,25.30
2019-02-27T10:00:45.976Z,23.73
2019-02-27T10:03:19.826Z,23.97
2019-02-27T10:05:44.878Z,23.67
2019-02-27T10:08:13.547Z,23.00
2019-02-27T10:10:44.879Z,23.03
2019-02-27T10:13:12.228Z,22.83
2019-02-27T10:15:40.687Z,22.13
2019-02-27T10:18:09.263Z,22.87
2019-02-27T10:20:38.051Z,22.80
2019-02-27T10:23:06.493Z,23.47
2019-02-27T10:25:34.970Z,23.73
2019-02-27T10:28:04.674Z,24.10
2019-02-27T10:30:33.248Z,22.47
2019-02-27T10:33:03.308Z,22.23
2019-02-27T10:35:32.163Z,22.57
2019-02-27T10:38:00.700Z,21.77
2019-02-27T10:40:29.160Z,23.17
2019-02-27T10:42:57.990Z,22.90
2019-02-27T10:45:26.505Z,22.93
2019-02-27T10:47:54.969Z,22.97
2019-02-27T10:50:23.477Z,22.93
2019-02-27T10:52:52.088Z,23.03
2019-02-27T10:55:21.752Z,22.17
2019-02-27T10:57:50.341Z,23.55
2019-02-27T11:00:28.657Z,23.70
2019-02-27T11:02:57.588Z,26.13
2019-02-27T11:05:27.788Z,29.67
2019-02-27T11:07:56.288Z,23.50
2019-02-27T11:10:25.460Z,21.40
2019-02-27T11:12:53.932Z,20.97
2019-02-27T11:15:23.103Z,20.30
2019-02-27T11:17:51.605Z,21.50
2019-02-27T11:20:21.061Z,21.95
2019-02-27T11:22:50.602Z,23.85
2019-02-27T11:25:27.271Z,21.48
2019-02-27T11:27:55.815Z,20.08
2019-02-27T11:30:36.832Z,24.55
2019-02-27T11:33:05.795Z,22.87
2019-02-27T11:35:34.387Z,21.12
2019-02-27T11:38:02.970Z,19.73
2019-02-27T11:40:31.497Z,19.45
2019-02-27T11:43:01.112Z,20.40
2019-02-27T11:45:29.789Z,17.77
2019-02-27T11:47:58.351Z,16.85
2019-02-27T11:50:26.811Z,19.82
2019-02-27T11:52:55.374Z,17.92
2019-02-27T11:55:24.545Z,18.17
2019-02-27T11:57:53.312Z,18.42
2019-02-27T12:00:26.863Z,17.07
2019-02-27T12:02:55.652Z,18.75
2019-02-27T12:05:24.221Z,19.17
2019-02-27T12:07:52.796Z,20.48
2019-02-27T12:10:26.246Z,22.87
2019-02-27T12:12:59.714Z,20.50
2019-02-27T12:15:24.949Z,20.77
2019-02-27T12:17:53.709Z,21.12
2019-02-27T12:20:23.348Z,19.20
2019-02-27T12:22:51.841Z,20.92
2019-02-27T12:25:21.200Z,20.97
2019-02-27T12:27:54.261Z,20.57
2019-02-27T12:30:30.309Z,22.70
2019-02-27T12:32:58.915Z,20.57
2019-02-27T12:35:30.448Z,21.10
2019-02-27T12:37:58.882Z,21.55
2019-02-27T12:40:27.426Z,21.48
2019-02-27T12:42:55.949Z,20.82
2019-02-27T12:45:29.625Z,19.42
2019-02-27T12:47:58.329Z,19.95
2019-02-27T12:50:31.472Z,19.90
2019-02-27T12:53:00.252Z,18.70
2019-02-27T12:55:28.830Z,19.90
2019-02-27T12:57:57.294Z,18.67
2019-02-27T13:00:29.811Z,18.25
2019-02-27T13:02:59.136Z,19.27
2019-02-27T13:05:28.372Z,18.57
2019-02-27T13:07:56.865Z,20.35
2019-02-27T13:10:33.100Z,18.35
2019-02-27T13:12:58.779Z,16.87
2019-02-27T13:15:28.898Z,18.62
2019-02-27T13:17:58.116Z,17.32
2019-02-27T13:20:31.999Z,18.15
2019-02-27T13:23:03.889Z,18.73
2019-02-27T13:25:30.715Z,18.57
2019-02-27T13:27:59.262Z,15.85
2019-02-27T13:30:28.442Z,16.57
2019-02-27T13:33:00.671Z,15.38
2019-02-27T13:35:28.538Z,15.53
2019-02-27T13:37:57.452Z,14.50
2019-02-27T13:40:27.295Z,15.48
2019-02-27T13:42:55.896Z,14.93
2019-02-27T13:45:32.340Z,14.43
2019-02-27T13:48:04.802Z,14.83
2019-02-27T13:50:31.052Z,16.85
2019-02-27T13:52:59.572Z,16.15
2019-02-27T13:55:28.101Z,15.48
2019-02-27T13:57:59.298Z,15.68
2019-02-27T14:00:31.068Z,15.35
2019-02-27T14:02:59.597Z,15.23
2019-02-27T14:05:29.559Z,14.98
2019-02-27T14:07:58.972Z,14.93
2019-02-27T14:10:32.574Z,16.15
2019-02-27T14:13:01.129Z,15.75
2019-02-27T14:15:31.586Z,14.65
2019-02-27T14:18:00.472Z,17.52
2019-02-27T14:20:29.286Z,14.03
2019-02-27T14:22:58.436Z,14.47
2019-02-27T14:25:32.677Z,14.97
2019-02-27T14:27:58.819Z,16.97
2019-02-27T14:30:35.489Z,15.47
2019-02-27T14:33:03.216Z,15.30
2019-02-27T14:35:35.309Z,13.57
2019-02-27T14:38:01.962Z,14.67
2019-02-27T14:40:30.431Z,14.40
2019-02-27T14:42:58.959Z,15.33
2019-02-27T14:45:27.452Z,15.30
2019-02-27T14:47:55.924Z,15.07
2019-02-27T14:50:24.885Z,15.00
2019-02-27T14:52:53.387Z,15.10
2019-02-27T14:55:22.687Z,16.60
2019-02-27T14:57:51.539Z,15.00
2019-02-27T15:00:25.069Z,15.67
2019-02-27T15:02:55.671Z,16.20
2019-02-27T15:05:24.019Z,15.43
2019-02-27T15:07:54.646Z,15.87
2019-02-27T15:10:24.650Z,16.30
2019-02-27T15:12:54.990Z,14.53
2019-02-27T15:15:27.717Z,14.50
2019-02-27T15:17:56.313Z,15.07
2019-02-27T15:20:26.380Z,15.20
2019-02-27T15:22:55.019Z,15.83
2019-02-27T15:25:23.686Z,15.50
2019-02-27T15:27:52.187Z,16.13
2019-02-27T15:30:30.944Z,16.30
2019-02-27T15:33:03.789Z,16.87
2019-02-27T15:35:29.620Z,16.10
2019-02-27T15:37:58.082Z,16.03
2019-02-27T15:40:30.286Z,17.97
2019-02-27T15:42:59.009Z,17.47
2019-02-27T15:45:28.418Z,17.73
2019-02-27T15:47:56.915Z,18.10
2019-02-27T15:50:30.150Z,17.77
2019-02-27T15:52:58.680Z,18.67
2019-02-27T15:55:33.050Z,18.00
2019-02-27T15:57:57.533Z,18.93
2019-02-27T16:00:26.995Z,18.40
2019-02-27T16:02:55.603Z,17.70
2019-02-27T16:05:24.161Z,18.23
2019-02-27T16:07:52.740Z,18.50
2019-02-27T16:10:26.582Z,17.57
2019-02-27T16:13:00.055Z,17.87
2019-02-27T16:15:25.636Z,17.77
2019-02-27T16:17:54.105Z,18.37
2019-02-27T16:20:26.493Z,19.03
2019-02-27T16:22:55.028Z,17.93
2019-02-27T16:25:24.541Z,17.63
2019-02-27T16:27:53.008Z,17.97
2019-02-27T16:30:32.522Z,19.27
2019-02-27T16:32:59.527Z,20.23
2019-02-27T16:35:27.953Z,18.63
2019-02-27T16:37:57.791Z,19.65
2019-02-27T16:40:28.499Z,20.33
2019-02-27T16:42:57.052Z,19.70
2019-02-27T16:45:37.311Z,19.40
2019-02-27T16:48:06.190Z,20.97
2019-02-27T16:50:34.800Z,20.33
2019-02-27T16:53:03.299Z,21.33
2019-02-27T16:55:35.687Z,19.60
2019-02-27T16:58:02.237Z,20.47
2019-02-27T17:00:31.802Z,20.77
2019-02-27T17:03:00.353Z,19.23
2019-02-27T17:05:28.933Z,21.63
2019-02-27T17:08:02.232Z,22.20
2019-02-27T17:10:32.311Z,23.20
2019-02-27T17:13:00.790Z,23.77
2019-02-27T17:15:34.793Z,22.70
2019-02-27T17:17:59.766Z,22.23
2019-02-27T17:20:28.660Z,21.80
2019-02-27T17:22:57.277Z,22.10
2019-02-27T17:25:29.055Z,22.10
2019-02-27T17:27:55.992Z,21.33
2019-02-27T17:30:36.651Z,21.10
2019-02-27T17:33:04.100Z,22.23
2019-02-27T17:35:32.378Z,22.70
2019-02-27T17:38:00.858Z,21.33
2019-02-27T17:40:29.445Z,21.17
2019-02-27T17:42:57.860Z,22.50
2019-02-27T17:45:27.925Z,20.17
2019-02-27T17:47:56.456Z,20.30
2019-02-27T17:50:25.054Z,20.57
2019-02-27T17:52:53.488Z,20.37
2019-02-27T17:55:22.057Z,20.80
2019-02-27T17:57:50.513Z,21.13
2019-02-27T18:00:30.749Z,21.23
2019-02-27T18:02:59.177Z,21.70
2019-02-27T18:05:27.645Z,24.67
2019-02-27T18:07:56.103Z,23.80
2019-02-27T18:10:24.532Z,23.00
2019-02-27T18:12:53.060Z,25.53
2019-02-27T18:15:22.434Z,27.30
2019-02-27T18:17:51.020Z,24.80
2019-02-27T18:20:24.170Z,27.13
2019-02-27T18:22:50.358Z,26.07
2019-02-27T18:25:19.057Z,27.07
2019-02-27T18:27:48.008Z,27.33
2019-02-27T18:30:23.708Z,25.30
2019-02-27T18:32:52.157Z,25.02
2019-02-27T18:35:20.767Z,23.33
2019-02-27T18:37:53.285Z,22.63
2019-02-27T18:40:20.603Z,23.00
2019-02-27T18:42:49.105Z,23.17
2019-02-27T18:45:20.641Z,23.57
2019-02-27T18:47:49.136Z,23.87
2019-02-27T18:50:17.677Z,24.00
2019-02-27T18:52:46.168Z,22.63
2019-02-27T18:55:15.386Z,21.03
2019-02-27T18:57:47.108Z,23.17
2019-02-27T19:00:25.075Z,22.17
2019-02-27T19:02:56.287Z,22.00
2019-02-27T19:05:24.881Z,22.47
2019-02-27T19:07:54.766Z,23.17
2019-02-27T19:10:23.751Z,21.33
2019-02-27T19:12:52.291Z,22.77
2019-02-27T19:15:25.029Z,21.83
2019-02-27T19:17:53.786Z,22.17
2019-02-27T19:20:34.232Z,22.10
2019-02-27T19:23:03.012Z,22.20
2019-02-27T19:25:34.654Z,21.57
2019-02-27T19:28:01.821Z,20.30
2019-02-27T19:30:30.469Z,19.43
2019-02-27T19:33:01.865Z,19.20
2019-02-27T19:35:29.213Z,18.63
2019-02-27T19:37:58.013Z,18.67
2019-02-27T19:40:29.948Z,19.63
2019-02-27T19:43:01.683Z,20.17
2019-02-27T19:45:30.395Z,18.90
2019-02-27T19:47:58.912Z,18.07
2019-02-27T19:50:27.994Z,18.80
2019-02-27T19:52:56.875Z,19.20
2019-02-27T19:55:27.289Z,18.40
2019-02-27T19:57:55.753Z,19.53
2019-02-27T20:00:33.603Z,19.10
2019-02-27T20:03:01.538Z,18.35
2019-02-27T20:05:30.510Z,19.87
2019-02-27T20:07:59.116Z,19.90
2019-02-27T20:10:30.190Z,20.93
2019-02-27T20:12:57.810Z,20.77
2019-02-27T20:15:27.197Z,20.03
2019-02-27T20:17:55.785Z,19.73
2019-02-27T20:20:24.884Z,20.00
2019-02-27T20:22:54.765Z,20.87
2019-02-27T20:25:28.709Z,20.97
2019-02-27T20:27:58.691Z,20.40
2019-02-27T20:30:28.721Z,21.20
2019-02-27T20:32:59.814Z,20.57
2019-02-27T20:35:27.451Z,20.40
2019-02-27T20:37:56.107Z,20.43
2019-02-27T20:40:24.630Z,20.47
2019-02-27T20:42:55.176Z,20.10
2019-02-27T20:45:29.384Z,20.40
2019-02-27T20:48:05.178Z,20.00
2019-02-27T20:51:06.006Z,20.60
2019-02-27T20:53:33.483Z,19.70
2019-02-27T20:56:02.898Z,21.80
2019-02-27T20:58:32.289Z,20.70
2019-02-27T21:01:01.427Z,21.53
2019-02-27T21:03:29.896Z,20.60
2019-02-27T21:05:58.348Z,21.40
2019-02-27T21:08:26.812Z,21.70
2019-02-27T21:10:56.375Z,21.83
2019-02-27T21:13:24.879Z,21.30
2019-02-27T21:15:53.552Z,20.47
2019-02-27T21:18:22.001Z,20.70
2019-02-27T21:20:50.967Z,20.90
2019-02-27T21:23:19.582Z,20.80
2019-02-27T21:25:49.209Z,21.00
2019-02-27T21:28:20.845Z,21.60
2019-02-27T21:30:51.871Z,22.47
2019-02-27T21:33:18.697Z,21.63
2019-02-27T21:35:47.299Z,21.63
2019-02-27T21:38:16.654Z,22.30
2019-02-27T21:40:45.428Z,20.67
2019-02-27T21:43:13.988Z,21.57
2019-02-27T21:45:42.432Z,22.62
2019-02-27T21:48:10.902Z,21.77
2019-02-27T21:50:39.852Z,22.07
2019-02-27T21:53:08.948Z,21.27
2019-02-27T21:55:37.377Z,22.83
2019-02-27T21:58:05.986Z,22.40
2019-02-27T22:00:34.805Z,21.80
2019-02-27T22:03:04.928Z,22.40
2019-02-27T22:05:42.294Z,22.83
2019-02-27T22:08:05.453Z,21.97
2019-02-27T22:10:33.764Z,21.97
2019-02-27T22:13:02.194Z,22.70
2019-02-27T22:15:31.161Z,22.33
2019-02-27T22:17:59.711Z,23.17
2019-02-27T22:20:28.225Z,22.93
2019-02-27T22:22:56.723Z,22.77
2019-02-27T22:25:27.443Z,23.17
2019-02-27T22:27:55.703Z,21.40
2019-02-27T22:30:24.301Z,22.23
2019-02-27T22:32:52.728Z,23.23
2019-02-27T22:35:21.180Z,22.30
2019-02-27T22:37:52.366Z,22.10
2019-02-27T22:40:21.435Z,21.80
2019-02-27T22:42:49.947Z,22.00
2019-02-27T22:45:20.226Z,22.07
2019-02-27T22:47:49.792Z,22.10
2019-02-27T22:50:21.434Z,22.13
2019-02-27T22:52:54.217Z,22.43
2019-02-27T22:55:20.428Z,23.53
2019-02-27T22:57:49.024Z,22.83
2019-02-27T23:00:42.951Z,23.07
2019-02-27T23:03:10.123Z,22.67
2019-02-27T23:05:39.158Z,23.00
2019-02-27T23:08:07.636Z,23.17
2019-02-27T23:10:36.092Z,24.17
2019-02-27T23:13:04.615Z,25.47
2019-02-27T23:15:33.134Z,24.73
2019-02-27T23:18:02.550Z,25.37
2019-02-27T23:20:32.143Z,26.57
2019-02-27T23:23:02.610Z,26.00
2019-02-27T23:25:30.813Z,29.60
2019-02-27T23:28:00.825Z,29.73
2019-02-27T23:30:29.416Z,31.30
2019-02-27T23:32:59.355Z,31.50
2019-02-27T23:35:28.091Z,32.83
2019-02-27T23:37:56.553Z,35.70
2019-02-27T23:40:25.087Z,36.03
2019-02-27T23:42:53.547Z,34.97
2019-02-27T23:45:22.280Z,35.57
2019-02-27T23:47:50.729Z,36.30
2019-02-27T23:50:19.236Z,38.07
2019-02-27T23:52:47.747Z,38.57
2019-02-27T23:55:16.194Z,40.60
2019-02-27T23:57:44.636Z,40.73
